Airport View

Enter AWOS ICAO identifier for current METAR.

ex. KFNL

KCQF 031755Z AUTO 00000KT 10SM SCT050 30/23 A2994 RMK AO2

3 Jul 2020 18:01

Frequency: 118.425

Phone: 251-928-3242

Other Area AWOS: KBFM - KJKA - KMOB - KNPA

TAF KBFM 031720Z 0318/0418 14006KT P6SM VCSH SCT050 BKN070 BKN200 TEMPO 0320/0324 4SM TSRA BKN040CB FM040200 32002KT P6SM FEW070 SCT150 SCT250 FM041200 36003KT P6SM VCSH SCT040 SCT080 FM041500 05004KT P6SM VCTS BKN040CB BKN080 TEMPO 0415/0418 4SM TSRA BKN035CB